createdAt,value
2018-10-12T00:02:23.719Z,96493.33
2018-10-12T00:04:52.114Z,96494.67
2018-10-12T00:07:20.585Z,96498.16
2018-10-12T00:09:49.041Z,96501.56
2018-10-12T00:12:17.429Z,96499.39
2018-10-12T00:14:45.781Z,96504.63
2018-10-12T00:17:14.282Z,96510.19
2018-10-12T00:19:42.806Z,96513.37
2018-10-12T00:22:11.141Z,96516.77
2018-10-12T00:24:39.464Z,96524.17
2018-10-12T00:27:08.038Z,96524.89
2018-10-12T00:29:36.419Z,96520.58
2018-10-12T00:32:05.124Z,96528.50
2018-10-12T00:34:33.526Z,96531.90
2018-10-12T00:37:02.166Z,96524.08
2018-10-12T00:39:30.438Z,96528.19
2018-10-12T00:41:59.137Z,96538.36
2018-10-12T00:44:27.471Z,96538.75
2018-10-12T00:46:55.776Z,96536.73
2018-10-12T00:49:24.086Z,96546.90
2018-10-12T00:51:52.422Z,96548.63
2018-10-12T00:54:20.838Z,96552.77
2018-10-12T00:56:49.226Z,96563.45
2018-10-12T00:59:17.574Z,96560.56
2018-10-12T01:01:45.938Z,96567.94
2018-10-12T01:04:14.358Z,96565.20
2018-10-12T01:06:42.824Z,96564.19
2018-10-12T01:09:11.073Z,96568.36
2018-10-12T01:11:39.520Z,96575.86
2018-10-12T01:14:07.826Z,96565.88
2018-10-12T01:16:36.277Z,96576.60
2018-10-12T01:19:04.631Z,96574.22
2018-10-12T01:21:33.014Z,96575.27
2018-10-12T01:24:01.422Z,96573.83
2018-10-12T01:26:29.871Z,96576.28
2018-10-12T01:28:58.706Z,96580.91
2018-10-12T01:31:27.987Z,96583.09
2018-10-12T01:33:56.712Z,96585.47
2018-10-12T01:36:25.112Z,96579.59
2018-10-12T01:38:53.457Z,96578.36
2018-10-12T01:41:22.078Z,96584.32
2018-10-12T01:43:50.562Z,96580.64
2018-10-12T01:46:18.906Z,96586.99
2018-10-12T01:48:47.402Z,96592.24
2018-10-12T01:51:15.678Z,96588.43
2018-10-12T01:53:44.038Z,96594.50
2018-10-12T01:56:12.740Z,96591.53
2018-10-12T01:58:41.174Z,96600.33
2018-10-12T02:01:09.591Z,96594.98
2018-10-12T02:03:38.006Z,96604.24
2018-10-12T02:06:06.454Z,96600.46
2018-10-12T02:08:34.886Z,96599.22
2018-10-12T02:11:03.246Z,96603.33
2018-10-12T02:13:31.571Z,96606.84
2018-10-12T02:15:59.973Z,96609.49
2018-10-12T02:18:28.554Z,96611.41
2018-10-12T02:20:57.014Z,96612.00
2018-10-12T02:23:25.403Z,96615.67
2018-10-12T02:25:53.858Z,96621.02
2018-10-12T02:28:22.135Z,96622.00
2018-10-12T02:30:50.456Z,96632.92
2018-10-12T02:33:18.956Z,96631.06
2018-10-12T02:35:47.482Z,96638.56
2018-10-12T02:38:15.899Z,96638.80
2018-10-12T02:40:44.402Z,96646.72
2018-10-12T02:43:12.933Z,96653.70
2018-10-12T02:45:41.344Z,96658.36
2018-10-12T02:48:09.738Z,96658.65
2018-10-12T02:50:38.067Z,96664.39
2018-10-12T02:53:06.462Z,96665.52
2018-10-12T02:55:34.778Z,96668.19
2018-10-12T02:58:03.266Z,96676.02
2018-10-12T03:00:31.774Z,96680.42
2018-10-12T03:03:00.099Z,96687.95
2018-10-12T03:05:28.430Z,96690.39
2018-10-12T03:07:56.792Z,96691.50
2018-10-12T03:10:25.546Z,96700.98
2018-10-12T03:12:53.898Z,96699.23
2018-10-12T03:15:22.270Z,96708.81
2018-10-12T03:17:50.686Z,96714.73
2018-10-12T03:20:19.134Z,96722.70
2018-10-12T03:22:47.790Z,96726.80
2018-10-12T03:25:16.266Z,96739.59
2018-10-12T03:27:55.884Z,96734.55
2018-10-12T03:30:24.426Z,96742.16
2018-10-12T03:32:52.937Z,96748.94
2018-10-12T03:35:21.262Z,96750.84
2018-10-12T03:37:49.701Z,96756.95
2018-10-12T03:40:18.142Z,96761.59
2018-10-12T03:42:46.526Z,96763.03
2018-10-12T03:45:14.918Z,96770.13
2018-10-12T03:47:43.364Z,96771.27
2018-10-12T03:50:11.730Z,96772.33
2018-10-12T03:52:40.182Z,96772.85
2018-10-12T03:55:08.770Z,96768.98
2018-10-12T03:57:37.134Z,96777.11
2018-10-12T04:00:05.547Z,96779.07
2018-10-12T04:02:33.843Z,96788.04
2018-10-12T04:05:02.165Z,96782.70
2018-10-12T04:07:30.722Z,96781.79
2018-10-12T04:10:00.204Z,96775.49
2018-10-12T04:12:28.500Z,96781.45
2018-10-12T04:14:57.055Z,96784.36
2018-10-12T04:17:25.363Z,96786.16
2018-10-12T04:19:53.726Z,96789.95
2018-10-12T04:22:24.238Z,96794.23
2018-10-12T04:24:52.559Z,96803.66
2018-10-12T04:27:21.493Z,96798.70
2018-10-12T04:29:49.843Z,96800.22
2018-10-12T04:32:19.223Z,96804.38
2018-10-12T04:34:48.209Z,96811.32
2018-10-12T04:37:17.019Z,96808.73
2018-10-12T04:40:06.915Z,96804.61
2018-10-12T04:42:35.416Z,96813.45
2018-10-12T04:45:03.779Z,96815.19
2018-10-12T04:47:32.463Z,96821.86
2018-10-12T04:50:01.788Z,96816.56
2018-10-12T04:52:32.416Z,96820.97
2018-10-12T04:55:00.714Z,96824.00
2018-10-12T04:57:29.128Z,96825.97
2018-10-12T04:59:57.447Z,96829.34
2018-10-12T05:02:25.755Z,96823.44
2018-10-12T05:04:54.199Z,96831.14
2018-10-12T05:07:22.559Z,96829.56
2018-10-12T05:09:50.822Z,96832.78
2018-10-12T05:12:19.227Z,96832.75
2018-10-12T05:14:48.829Z,96840.39
2018-10-12T05:17:17.163Z,96844.84
2018-10-12T05:19:45.564Z,96847.08
2018-10-12T05:22:14.045Z,96852.11
2018-10-12T05:24:42.322Z,96851.64
2018-10-12T05:27:10.682Z,96848.72
2018-10-12T05:29:38.980Z,96853.51
2018-10-12T05:32:07.305Z,96856.30
2018-10-12T05:34:35.821Z,96863.60
2018-10-12T05:37:04.140Z,96871.55
2018-10-12T05:39:32.459Z,96874.39
2018-10-12T05:42:00.865Z,96880.02
2018-10-12T05:44:29.389Z,96878.78
2018-10-12T05:46:57.791Z,96882.73
2018-10-12T05:50:06.353Z,96879.95
2018-10-12T05:52:35.347Z,96887.26
2018-10-12T05:55:03.813Z,96884.83
2018-10-12T05:57:34.883Z,96883.76
2018-10-12T06:00:03.300Z,96890.30
2018-10-12T06:02:31.698Z,96892.53
2018-10-12T06:05:00.229Z,96900.55
2018-10-12T06:07:28.898Z,96905.87
2018-10-12T06:09:57.320Z,96906.00
2018-10-12T06:12:25.659Z,96908.84
2018-10-12T06:14:53.995Z,96913.03
2018-10-12T06:17:22.441Z,96923.65
2018-10-12T06:19:50.774Z,96923.77
2018-10-12T06:22:19.241Z,96923.50
2018-10-12T06:24:47.610Z,96929.41
2018-10-12T06:27:16.015Z,96936.89
2018-10-12T06:29:44.373Z,96936.53
2018-10-12T06:32:12.750Z,96939.45
2018-10-12T06:34:41.146Z,96941.62
2018-10-12T06:37:09.495Z,96944.09
2018-10-12T06:39:37.874Z,96949.24
2018-10-12T06:42:06.444Z,96955.61
2018-10-12T06:44:35.046Z,96966.28
2018-10-12T06:47:03.421Z,96967.17
2018-10-12T06:49:31.894Z,96973.09
2018-10-12T06:52:00.162Z,96976.55
2018-10-12T06:54:28.446Z,96978.73
2018-10-12T06:56:56.766Z,96978.37
2018-10-12T06:59:25.110Z,96979.45
2018-10-12T07:01:53.629Z,96988.86
2018-10-12T07:04:22.210Z,96983.75
2018-10-12T07:06:50.540Z,96985.17
2018-10-12T07:09:18.821Z,96985.61
2018-10-12T07:11:47.230Z,96992.50
2018-10-12T07:14:15.578Z,96988.06
2018-10-12T07:16:43.982Z,96994.53
2018-10-12T07:19:12.477Z,96997.16
2018-10-12T07:21:40.826Z,96999.80
2018-10-12T07:24:09.335Z,97013.06
2018-10-12T07:26:37.728Z,97012.50
2018-10-12T07:29:06.365Z,97016.47
2018-10-12T07:31:34.835Z,97017.73
2018-10-12T07:34:03.311Z,97021.27
2018-10-12T07:36:31.598Z,97021.28
2018-10-12T07:38:59.974Z,97021.94
2018-10-12T07:41:28.674Z,97024.42
2018-10-12T07:43:56.950Z,97027.33
2018-10-12T07:46:25.327Z,97027.14
2018-10-12T07:48:53.722Z,97025.59
2018-10-12T07:51:22.068Z,97021.73
2018-10-12T07:53:50.362Z,97023.72
2018-10-12T07:56:18.802Z,97022.69
2018-10-12T07:58:47.072Z,97034.23
2018-10-12T08:01:15.586Z,97035.27
2018-10-12T08:03:44.008Z,97037.55
2018-10-12T08:06:12.385Z,97041.55
2018-10-12T08:08:40.650Z,97043.20
2018-10-12T08:11:09.318Z,97037.33
2018-10-12T08:13:37.779Z,97049.71
2018-10-12T08:16:06.090Z,97045.66
2018-10-12T08:18:34.546Z,97043.61
2018-10-12T08:21:02.842Z,97049.72
2018-10-12T08:23:31.144Z,97057.74
2018-10-12T08:25:59.530Z,97056.28
2018-10-12T08:28:27.814Z,97058.65
2018-10-12T08:30:56.110Z,97056.25
2018-10-12T08:33:24.434Z,97055.41
2018-10-12T08:35:52.785Z,97056.51
2018-10-12T08:38:21.070Z,97064.56
2018-10-12T08:40:49.418Z,97063.19
2018-10-12T08:43:17.915Z,97065.34
2018-10-12T08:45:46.614Z,97074.81
2018-10-12T08:48:15.326Z,97064.55
2018-10-12T08:50:43.663Z,97068.65
2018-10-12T08:53:15.065Z,97061.91
2018-10-12T08:55:43.594Z,97068.61
2018-10-12T08:58:12.006Z,97071.05
2018-10-12T09:00:40.378Z,97076.48
2018-10-12T09:03:08.774Z,97078.09
2018-10-12T09:05:37.123Z,97075.66
2018-10-12T09:08:05.486Z,97079.71
2018-10-12T09:10:33.836Z,97079.58
2018-10-12T09:13:02.290Z,97086.41
2018-10-12T09:15:30.922Z,97085.00
2018-10-12T09:17:59.222Z,97082.56
2018-10-12T09:20:27.632Z,97080.34
2018-10-12T09:22:55.988Z,97079.73
2018-10-12T09:25:24.494Z,97089.97
2018-10-12T09:27:52.842Z,97081.14
2018-10-12T09:30:21.190Z,97076.33
2018-10-12T09:32:49.621Z,97075.72
2018-10-12T09:35:17.984Z,97078.97
2018-10-12T09:37:46.258Z,97083.53
2018-10-12T09:40:14.838Z,97078.09
2018-10-12T09:42:43.142Z,97076.39
2018-10-12T09:45:11.554Z,97080.34
2018-10-12T09:47:39.990Z,97075.19
2018-10-12T09:50:08.584Z,97074.13
2018-10-12T09:52:36.923Z,97075.42
2018-10-12T09:55:05.519Z,97074.48
2018-10-12T09:57:34.875Z,97072.76
2018-10-12T10:00:03.930Z,97076.11
2018-10-12T10:02:37.482Z,97073.04
2018-10-12T10:05:07.798Z,97071.09
2018-10-12T10:07:36.301Z,97062.46
2018-10-12T10:10:05.263Z,97064.52
2018-10-12T10:12:33.695Z,97057.45
2018-10-12T10:15:02.081Z,97063.05
2018-10-12T10:17:30.467Z,97062.75
2018-10-12T10:19:59.057Z,97056.97
2018-10-12T10:22:27.398Z,97054.02
2018-10-12T10:24:56.023Z,97054.88
2018-10-12T10:27:24.385Z,97063.23
2018-10-12T10:29:52.656Z,97055.91
2018-10-12T10:32:21.334Z,97060.36
2018-10-12T10:34:49.679Z,97058.44
2018-10-12T10:37:18.080Z,97056.80
2018-10-12T10:39:46.566Z,97058.37
2018-10-12T10:42:14.927Z,97054.48
2018-10-12T10:44:43.306Z,97057.59
2018-10-12T10:47:11.741Z,97045.83
2018-10-12T10:49:40.094Z,97048.39
2018-10-12T10:52:08.625Z,97047.74
2018-10-12T10:54:37.883Z,97047.37
2018-10-12T10:57:06.888Z,97047.25
2018-10-12T10:59:36.331Z,97043.59
2018-10-12T11:02:04.822Z,97040.80
2018-10-12T11:04:33.793Z,97033.93
2018-10-12T11:07:02.770Z,97038.70
2018-10-12T11:09:31.374Z,97024.28
2018-10-12T11:11:59.690Z,97025.00
2018-10-12T11:14:28.137Z,97023.52
2018-10-12T11:16:56.646Z,97027.44
2018-10-12T11:19:25.091Z,97021.38
2018-10-12T11:21:53.352Z,97026.69
2018-10-12T11:24:21.833Z,97023.27
2018-10-12T11:26:50.276Z,97017.74
2018-10-12T11:29:18.575Z,97020.24
2018-10-12T11:31:46.944Z,97019.73
2018-10-12T11:34:15.303Z,97014.64
2018-10-12T11:36:43.674Z,97016.84
2018-10-12T11:39:14.960Z,97012.90
2018-10-12T11:41:43.418Z,97011.69
2018-10-12T11:44:11.783Z,97010.70
2018-10-12T11:46:40.102Z,97008.31
2018-10-12T11:49:08.738Z,97009.99
2018-10-12T11:51:37.130Z,96999.75
2018-10-12T11:54:05.592Z,96992.75
2018-10-12T11:56:33.979Z,96986.28
2018-10-12T11:59:02.346Z,96995.11
2018-10-12T12:01:30.762Z,96989.20
2018-10-12T12:03:59.128Z,96991.16
2018-10-12T12:06:27.427Z,96988.55
2018-10-12T12:08:55.906Z,96985.34
2018-10-12T12:11:24.238Z,96985.13
2018-10-12T12:13:52.755Z,96982.80
2018-10-12T12:16:20.938Z,96977.69
2018-10-12T12:18:49.263Z,96980.75
2018-10-12T12:21:17.588Z,96978.67
2018-10-12T12:23:46.783Z,96982.52
2018-10-12T12:26:15.166Z,96982.83
2018-10-12T12:28:43.475Z,96977.69
2018-10-12T12:31:11.815Z,96977.20
2018-10-12T12:33:40.141Z,96976.14
2018-10-12T12:36:12.116Z,96971.30
2018-10-12T12:38:40.399Z,96979.50
2018-10-12T12:41:08.860Z,96972.75
2018-10-12T12:43:37.319Z,96973.06
2018-10-12T12:46:06.958Z,96973.38
2018-10-12T12:48:35.749Z,96972.59
2018-10-12T12:51:03.689Z,96967.97
2018-10-12T12:53:31.974Z,96973.96
2018-10-12T12:56:00.369Z,96973.70
2018-10-12T12:58:28.809Z,96969.64
2018-10-12T13:00:57.083Z,96969.42
2018-10-12T13:03:25.422Z,96967.53
2018-10-12T13:05:53.850Z,96973.26
2018-10-12T13:08:22.139Z,96974.62
2018-10-12T13:10:52.958Z,96978.45
2018-10-12T13:13:21.786Z,96976.92
2018-10-12T13:15:50.191Z,96973.73
2018-10-12T13:18:18.711Z,96967.81
2018-10-12T13:20:47.337Z,96970.02
2018-10-12T13:23:15.707Z,96965.96
2018-10-12T13:25:44.236Z,96967.87
2018-10-12T13:28:12.913Z,96962.20
2018-10-12T13:30:41.385Z,96969.62
2018-10-12T13:33:09.764Z,96959.05
2018-10-12T13:35:38.332Z,96963.67
2018-10-12T13:38:07.041Z,96963.44
2018-10-12T13:40:35.489Z,96963.48
2018-10-12T13:43:04.125Z,96967.04
2018-10-12T13:45:32.441Z,96970.88
2018-10-12T13:48:00.849Z,96967.61
2018-10-12T13:50:29.313Z,96967.35
2018-10-12T13:52:57.653Z,96970.33
2018-10-12T13:55:26.083Z,96965.20
2018-10-12T13:57:54.467Z,96971.73
2018-10-12T14:00:22.997Z,96971.98
2018-10-12T14:02:51.509Z,96973.04
2018-10-12T14:05:19.871Z,96969.83
2018-10-12T14:07:48.249Z,96972.84
2018-10-12T14:10:16.660Z,96972.89
2018-10-12T14:12:45.235Z,96979.44
2018-10-12T14:15:20.177Z,96974.55
2018-10-12T14:17:48.624Z,96965.25
2018-10-12T14:20:17.028Z,96971.24
2018-10-12T14:22:45.421Z,96966.64
2018-10-12T14:25:14.234Z,96966.91
2018-10-12T14:27:42.636Z,96972.05
2018-10-12T14:30:11.054Z,96967.41
2018-10-12T14:32:39.478Z,96963.59
2018-10-12T14:35:07.806Z,96967.66
2018-10-12T14:37:36.191Z,96968.20
2018-10-12T14:40:04.876Z,96962.97
2018-10-12T14:42:33.153Z,96966.20
2018-10-12T14:45:01.672Z,96963.44
2018-10-12T14:47:30.119Z,96965.59
2018-10-12T14:49:58.563Z,96957.09
2018-10-12T14:52:26.915Z,96956.52
2018-10-12T14:54:55.248Z,96954.80
2018-10-12T14:57:23.628Z,96957.25
2018-10-12T14:59:52.005Z,96952.82
2018-10-12T15:02:20.634Z,96954.96
2018-10-12T15:04:49.088Z,96950.03
2018-10-12T15:07:17.459Z,96950.02
2018-10-12T15:09:46.136Z,96943.71
2018-10-12T15:12:14.553Z,96945.82
2018-10-12T15:14:53.974Z,96945.47
2018-10-12T15:17:22.315Z,96942.72
2018-10-12T15:19:50.685Z,96942.66
2018-10-12T15:22:19.127Z,96941.52
2018-10-12T15:24:47.460Z,96945.54
2018-10-12T15:27:15.906Z,96945.20
2018-10-12T15:29:44.350Z,96940.83
2018-10-12T15:32:12.771Z,96944.02
2018-10-12T15:34:41.085Z,96945.03
2018-10-12T15:37:09.671Z,96950.38
2018-10-12T15:39:38.129Z,96946.21
2018-10-12T15:42:06.648Z,96947.23
2018-10-12T15:44:35.013Z,96949.31
2018-10-12T15:47:04.375Z,96945.98
2018-10-12T15:49:32.815Z,96948.89
2018-10-12T15:52:01.404Z,96941.72
2018-10-12T15:54:29.819Z,96940.56
2018-10-12T15:56:58.381Z,96944.78
2018-10-12T15:59:26.841Z,96939.86
2018-10-12T16:01:55.358Z,96947.88
2018-10-12T16:04:24.138Z,96952.07
2018-10-12T16:06:52.593Z,96953.02
2018-10-12T16:09:21.060Z,96958.55
2018-10-12T16:11:49.415Z,96953.82
2018-10-12T16:14:18.011Z,96958.23
2018-10-12T16:16:46.305Z,96955.16
2018-10-12T16:19:14.715Z,96954.50
2018-10-12T16:21:43.051Z,96953.28
2018-10-12T16:24:13.064Z,96946.62
2018-10-12T16:26:41.505Z,96952.44
2018-10-12T16:29:10.003Z,96956.32
2018-10-12T16:31:38.324Z,96954.83
2018-10-12T16:34:06.767Z,96955.97
2018-10-12T16:36:35.203Z,96956.36
2018-10-12T16:39:04.867Z,96954.31
2018-10-12T16:41:33.241Z,96947.71
2018-10-12T16:44:03.042Z,96944.86
2018-10-12T16:46:31.610Z,96950.64
2018-10-12T16:48:59.976Z,96952.11
2018-10-12T16:51:28.409Z,96959.02
2018-10-12T16:53:56.771Z,96956.66
2018-10-12T16:56:25.169Z,96958.88
2018-10-12T16:58:53.853Z,96962.00
2018-10-12T17:01:22.280Z,96963.77
2018-10-12T17:03:50.675Z,96966.30
2018-10-12T17:06:19.087Z,96968.00
2018-10-12T17:08:47.364Z,96973.77
2018-10-12T17:11:15.899Z,96971.73
2018-10-12T17:13:44.343Z,96981.40
2018-10-12T17:16:13.275Z,96982.59
2018-10-12T17:18:41.833Z,96982.19
2018-10-12T17:21:10.168Z,96981.95
2018-10-12T17:23:38.532Z,96989.36
2018-10-12T17:26:07.031Z,96988.70
2018-10-12T17:28:35.406Z,96989.56
2018-10-12T17:31:03.855Z,96986.38
2018-10-12T17:33:32.151Z,96991.11
2018-10-12T17:36:00.746Z,96992.77
2018-10-12T17:38:29.123Z,96999.56
2018-10-12T17:40:57.899Z,96994.05
2018-10-12T17:43:26.215Z,96995.30
2018-10-12T17:45:54.569Z,96996.42
2018-10-12T17:48:23.008Z,96996.36
2018-10-12T17:50:51.719Z,96989.78
2018-10-12T17:53:20.098Z,97000.99
2018-10-12T17:55:48.603Z,97000.99
2018-10-12T17:58:17.263Z,97002.49
2018-10-12T18:00:45.942Z,97004.45
2018-10-12T18:03:14.405Z,97004.45
2018-10-12T18:05:42.793Z,97003.10
2018-10-12T18:08:11.203Z,97010.34
2018-10-12T18:10:39.503Z,97005.41
2018-10-12T18:13:07.950Z,97011.91
2018-10-12T18:15:36.290Z,97008.71
2018-10-12T18:18:04.603Z,97016.94
2018-10-12T18:20:32.925Z,97017.38
2018-10-12T18:23:08.035Z,97015.69
2018-10-12T18:25:36.410Z,97018.05
2018-10-12T18:28:04.939Z,97017.19
2018-10-12T18:30:33.355Z,97017.16
2018-10-12T18:33:02.776Z,97024.78
2018-10-12T18:35:31.119Z,97026.58
2018-10-12T18:37:59.502Z,97030.86
2018-10-12T18:40:28.294Z,97028.19
2018-10-12T18:42:56.703Z,97030.25
2018-10-12T18:45:25.251Z,97032.22
2018-10-12T18:47:53.714Z,97029.14
2018-10-12T18:50:22.043Z,97028.84
2018-10-12T18:52:50.791Z,97033.30
2018-10-12T18:55:19.226Z,97039.40
2018-10-12T18:57:48.356Z,97037.77
2018-10-12T19:00:16.727Z,97044.56
2018-10-12T19:02:45.122Z,97037.20
2018-10-12T19:05:13.579Z,97048.07
2018-10-12T19:07:42.904Z,97050.48
2018-10-12T19:10:11.327Z,97044.86
2018-10-12T19:12:40.366Z,97049.25
2018-10-12T19:15:09.092Z,97056.61
2018-10-12T19:17:38.599Z,97057.74
2018-10-12T19:20:07.184Z,97052.05
2018-10-12T19:22:35.570Z,97059.06
2018-10-12T19:25:04.319Z,97058.14
2018-10-12T19:27:32.711Z,97062.41
2018-10-12T19:30:01.217Z,97069.13
2018-10-12T19:32:29.623Z,97061.99
2018-10-12T19:34:58.142Z,97065.08
2018-10-12T19:37:26.520Z,97063.22
2018-10-12T19:39:55.191Z,97064.27
2018-10-12T19:42:23.737Z,97061.16
2018-10-12T19:44:52.092Z,97062.61
2018-10-12T19:47:20.939Z,97070.12
2018-10-12T19:49:52.452Z,97070.80
2018-10-12T19:52:21.338Z,97071.19
2018-10-12T19:54:49.707Z,97075.91
2018-10-12T19:57:18.158Z,97080.10
2018-10-12T19:59:46.742Z,97078.72
2018-10-12T20:02:15.226Z,97073.64
2018-10-12T20:04:43.712Z,97072.52
2018-10-12T20:07:12.372Z,97078.55
2018-10-12T20:09:40.722Z,97081.50
2018-10-12T20:12:10.334Z,97076.94
2018-10-12T20:14:38.746Z,97081.96
2018-10-12T20:17:07.284Z,97082.81
2018-10-12T20:19:36.117Z,97087.75
2018-10-12T20:22:05.808Z,97094.06
2018-10-12T20:24:34.391Z,97097.13
2018-10-12T20:27:07.052Z,97104.45
2018-10-12T20:29:35.702Z,97100.43
2018-10-12T20:32:04.030Z,97105.78
2018-10-12T20:34:32.422Z,97109.86
2018-10-12T20:37:00.918Z,97106.20
2018-10-12T20:39:30.608Z,97107.20
2018-10-12T20:41:59.006Z,97105.23
2018-10-12T20:44:27.428Z,97104.86
2018-10-12T20:46:55.757Z,97104.11
2018-10-12T20:49:24.702Z,97107.92
2018-10-12T20:51:53.338Z,97109.92
2018-10-12T20:54:23.994Z,97111.22
2018-10-12T20:56:53.313Z,97116.55
2018-10-12T20:59:21.886Z,97116.12
2018-10-12T21:01:50.234Z,97111.90
2018-10-12T21:04:20.030Z,97113.84
2018-10-12T21:06:48.571Z,97113.00
2018-10-12T21:09:17.179Z,97109.55
2018-10-12T21:11:45.523Z,97112.86
2018-10-12T21:14:14.410Z,97106.77
2018-10-12T21:16:42.761Z,97109.11
2018-10-12T21:19:11.132Z,97103.50
2018-10-12T21:21:39.522Z,97107.44
2018-10-12T21:24:07.882Z,97102.66
2018-10-12T21:26:36.257Z,97104.44
2018-10-12T21:29:04.671Z,97107.19
2018-10-12T21:31:33.024Z,97105.02
2018-10-12T21:34:01.394Z,97102.16
2018-10-12T21:36:30.220Z,97097.00
2018-10-12T21:38:58.610Z,97099.34
2018-10-12T21:41:26.889Z,97100.23
2018-10-12T21:43:55.242Z,97098.55
2018-10-12T21:46:23.608Z,97092.94
2018-10-12T21:48:52.504Z,97089.42
2018-10-12T21:51:20.866Z,97092.95
2018-10-12T21:53:49.162Z,97089.42
2018-10-12T21:56:18.526Z,97086.97
2018-10-12T21:58:46.950Z,97080.77
2018-10-12T22:01:15.377Z,97080.66
2018-10-12T22:03:43.674Z,97079.20
2018-10-12T22:06:12.400Z,97087.52
2018-10-12T22:08:46.051Z,97082.24
2018-10-12T22:11:14.374Z,97088.22
2018-10-12T22:13:43.296Z,97085.95
2018-10-12T22:16:11.582Z,97085.09
2018-10-12T22:18:39.998Z,97091.80
2018-10-12T22:21:08.608Z,97093.52
2018-10-12T22:23:37.019Z,97089.55
2018-10-12T22:26:05.406Z,97084.05
2018-10-12T22:28:33.782Z,97083.91
2018-10-12T22:31:02.087Z,97091.48
2018-10-12T22:33:30.398Z,97091.14
2018-10-12T22:35:58.691Z,97085.31
2018-10-12T22:38:27.002Z,97079.67
2018-10-12T22:40:56.118Z,97082.59
2018-10-12T22:43:24.494Z,97081.22
2018-10-12T22:45:52.854Z,97072.05
2018-10-12T22:48:21.378Z,97076.24
2018-10-12T22:50:49.722Z,97077.34
2018-10-12T22:53:18.007Z,97076.13
2018-10-12T22:55:47.575Z,97081.77
2018-10-12T22:58:15.895Z,97078.05
2018-10-12T23:00:44.255Z,97084.85
2018-10-12T23:03:12.666Z,97083.61
2018-10-12T23:05:41.046Z,97080.72
2018-10-12T23:08:09.410Z,97079.98
2018-10-12T23:10:38.304Z,97081.76
2018-10-12T23:13:06.889Z,97078.58
2018-10-12T23:15:35.359Z,97073.00
2018-10-12T23:18:03.884Z,97079.55
2018-10-12T23:20:32.218Z,97074.39
2018-10-12T23:23:00.600Z,97073.98
2018-10-12T23:25:29.615Z,97069.64
2018-10-12T23:27:57.891Z,97067.02
2018-10-12T23:30:26.151Z,97068.13
2018-10-12T23:32:59.358Z,97066.31
2018-10-12T23:35:27.700Z,97072.88
2018-10-12T23:37:56.085Z,97070.78
2018-10-12T23:40:24.629Z,97070.72
2018-10-12T23:42:53.038Z,97076.76
2018-10-12T23:45:21.426Z,97064.04
2018-10-12T23:47:50.015Z,97067.25
2018-10-12T23:50:18.301Z,97065.81
2018-10-12T23:52:46.566Z,97073.39
2018-10-12T23:55:14.910Z,97067.69
2018-10-12T23:57:43.265Z,97071.31
